createdAt,value
2017-09-09T00:02:05.086Z,85.00
2017-09-09T00:04:32.609Z,84.80
2017-09-09T00:07:00.831Z,85.10
2017-09-09T00:09:28.310Z,85.10
2017-09-09T00:11:55.790Z,84.90
2017-09-09T00:14:23.269Z,84.90
2017-09-09T00:16:50.746Z,84.80
2017-09-09T00:19:18.223Z,84.50
2017-09-09T00:21:45.702Z,84.80
2017-09-09T00:24:13.946Z,85.70
2017-09-09T00:26:41.424Z,85.60
2017-09-09T00:29:08.906Z,85.30
2017-09-09T00:31:37.145Z,85.10
2017-09-09T00:34:04.620Z,85.00
2017-09-09T00:36:32.109Z,84.80
2017-09-09T00:38:59.608Z,84.80
2017-09-09T00:41:27.090Z,84.30
2017-09-09T00:43:54.573Z,84.10
2017-09-09T00:46:22.830Z,84.00
2017-09-09T00:48:50.312Z,84.00
2017-09-09T00:51:17.781Z,84.10
2017-09-09T00:53:45.260Z,84.40
2017-09-09T00:56:12.735Z,84.20
2017-09-09T00:58:40.222Z,84.20
2017-09-09T01:01:08.483Z,84.20
2017-09-09T01:03:35.966Z,84.20
2017-09-09T01:06:04.218Z,84.60
2017-09-09T01:08:31.702Z,84.20
2017-09-09T01:10:59.955Z,85.40
2017-09-09T01:13:27.439Z,84.70
2017-09-09T01:15:54.915Z,85.00
2017-09-09T01:18:22.384Z,85.10
2017-09-09T01:20:49.873Z,85.00
2017-09-09T01:23:17.346Z,84.70
2017-09-09T01:25:44.836Z,84.50
2017-09-09T01:28:13.082Z,84.30
2017-09-09T01:30:40.561Z,84.20
2017-09-09T01:33:08.042Z,84.30
2017-09-09T01:35:36.288Z,84.80
2017-09-09T01:38:03.779Z,84.60
2017-09-09T01:40:32.035Z,84.40
2017-09-09T01:42:59.520Z,84.30
2017-09-09T01:45:27.772Z,84.50
2017-09-09T01:47:56.023Z,84.60
2017-09-09T01:50:23.514Z,84.60
2017-09-09T01:52:51.759Z,84.80
2017-09-09T01:55:19.247Z,84.80
2017-09-09T01:57:46.724Z,85.00
2017-09-09T02:00:14.214Z,86.00
2017-09-09T02:02:41.691Z,85.20
2017-09-09T02:05:09.167Z,85.20
2017-09-09T02:07:36.659Z,85.20
2017-09-09T02:10:04.139Z,85.50
2017-09-09T02:12:31.619Z,85.50
2017-09-09T02:14:59.104Z,85.70
2017-09-09T02:17:26.597Z,85.80
2017-09-09T02:19:54.087Z,86.10
2017-09-09T02:22:21.559Z,86.30
2017-09-09T02:24:49.041Z,86.40
2017-09-09T02:27:16.528Z,86.20
2017-09-09T02:29:44.771Z,86.80
2017-09-09T02:32:12.250Z,86.60
2017-09-09T02:34:40.509Z,86.90
2017-09-09T02:37:07.989Z,86.70
2017-09-09T02:39:36.247Z,86.40
2017-09-09T02:42:03.728Z,86.40
2017-09-09T02:44:31.225Z,86.90
2017-09-09T02:46:58.707Z,87.00
2017-09-09T02:49:26.191Z,86.70
2017-09-09T02:51:54.446Z,87.60
2017-09-09T02:54:21.918Z,86.80
2017-09-09T02:56:49.429Z,86.80
2017-09-09T02:59:16.910Z,86.70
2017-09-09T03:01:44.413Z,86.50
2017-09-09T03:04:12.653Z,86.70
2017-09-09T03:06:40.128Z,86.50
2017-09-09T03:09:07.617Z,86.60
2017-09-09T03:11:35.853Z,86.50
2017-09-09T03:14:03.334Z,86.30
2017-09-09T03:16:31.586Z,87.40
2017-09-09T03:18:59.066Z,86.80
2017-09-09T03:21:26.546Z,87.10
2017-09-09T03:23:54.027Z,87.40
2017-09-09T03:26:21.497Z,87.30
2017-09-09T03:28:48.994Z,87.10
2017-09-09T03:31:16.491Z,86.80
2017-09-09T03:33:43.999Z,86.80
2017-09-09T03:36:11.496Z,86.80
2017-09-09T03:38:39.745Z,86.80
2017-09-09T03:41:07.233Z,86.70
2017-09-09T03:43:34.736Z,86.90
2017-09-09T03:46:02.219Z,86.80
2017-09-09T03:48:29.707Z,86.80
2017-09-09T03:50:57.951Z,86.60
2017-09-09T03:53:25.437Z,86.60
2017-09-09T03:55:53.686Z,87.30
2017-09-09T03:58:21.180Z,87.20
2017-09-09T04:00:48.664Z,87.30
2017-09-09T04:03:16.160Z,88.30
2017-09-09T04:05:43.643Z,89.50
2017-09-09T04:08:11.890Z,90.20
2017-09-09T04:10:39.368Z,90.10
2017-09-09T04:13:06.850Z,90.10
2017-09-09T04:15:35.100Z,90.30
2017-09-09T04:18:02.664Z,90.20
2017-09-09T04:20:30.142Z,90.10
2017-09-09T04:22:58.390Z,89.70
2017-09-09T04:25:25.865Z,89.60
2017-09-09T04:27:54.126Z,89.70
2017-09-09T04:30:21.613Z,89.60
2017-09-09T04:32:49.869Z,89.60
2017-09-09T04:35:17.360Z,89.50
2017-09-09T04:37:44.846Z,89.20
2017-09-09T04:40:12.338Z,88.80
2017-09-09T04:42:39.819Z,88.60
2017-09-09T04:45:08.067Z,89.00
2017-09-09T04:47:35.566Z,88.50
2017-09-09T04:50:03.805Z,89.50
2017-09-09T04:52:31.291Z,89.40
2017-09-09T04:54:59.553Z,89.00
2017-09-09T04:57:27.043Z,89.00
2017-09-09T04:59:54.526Z,88.80
2017-09-09T05:02:21.997Z,88.80
2017-09-09T05:04:49.486Z,88.60
2017-09-09T05:07:16.979Z,88.80
2017-09-09T05:09:44.466Z,90.00
2017-09-09T05:12:11.951Z,89.80
2017-09-09T05:14:39.443Z,89.90
2017-09-09T05:17:06.927Z,89.80
2017-09-09T05:19:34.407Z,90.00
2017-09-09T05:22:01.890Z,90.10
2017-09-09T05:24:29.380Z,90.20
2017-09-09T05:26:57.621Z,90.40
2017-09-09T05:29:25.101Z,90.00
2017-09-09T05:31:52.598Z,90.00
2017-09-09T05:34:20.078Z,90.00
2017-09-09T05:36:47.558Z,90.20
2017-09-09T05:39:15.047Z,90.20
2017-09-09T05:41:43.309Z,91.00
2017-09-09T05:44:10.802Z,91.00
2017-09-09T05:46:39.054Z,91.40
2017-09-09T05:49:06.539Z,91.00
2017-09-09T05:51:34.802Z,91.20
2017-09-09T05:54:03.041Z,91.10
2017-09-09T05:56:30.532Z,91.00
2017-09-09T05:58:58.780Z,91.80
2017-09-09T06:01:26.270Z,91.50
2017-09-09T06:03:54.521Z,91.10
2017-09-09T06:06:22.019Z,91.10
2017-09-09T06:08:49.507Z,90.90
2017-09-09T06:11:17.008Z,90.50
2017-09-09T06:13:44.485Z,90.50
2017-09-09T06:16:12.750Z,90.60
2017-09-09T06:18:40.250Z,90.50
2017-09-09T06:21:07.738Z,90.60
2017-09-09T06:23:35.234Z,90.40
2017-09-09T06:26:03.487Z,90.50
2017-09-09T06:28:30.976Z,90.50
2017-09-09T06:30:59.238Z,90.40
2017-09-09T06:33:26.731Z,90.40
2017-09-09T06:35:54.214Z,90.70
2017-09-09T06:38:21.686Z,90.30
2017-09-09T06:40:49.175Z,90.10
2017-09-09T06:43:16.667Z,90.30
2017-09-09T06:45:44.174Z,90.20
2017-09-09T06:48:11.674Z,90.20
2017-09-09T06:50:39.942Z,90.10
2017-09-09T06:53:08.190Z,90.10
2017-09-09T06:55:35.686Z,90.10
2017-09-09T06:58:03.944Z,90.10
2017-09-09T07:00:32.202Z,90.10
2017-09-09T07:02:59.693Z,90.10
2017-09-09T07:05:27.955Z,90.30
2017-09-09T07:07:55.438Z,90.30
2017-09-09T07:10:23.682Z,90.20
2017-09-09T07:12:51.175Z,90.20
2017-09-09T07:15:18.662Z,90.20
2017-09-09T07:17:46.165Z,90.10
2017-09-09T07:20:13.640Z,90.20
2017-09-09T07:22:41.897Z,90.00
2017-09-09T07:25:09.385Z,89.90
2017-09-09T07:27:37.651Z,90.00
2017-09-09T07:30:05.918Z,90.20
2017-09-09T07:32:35.035Z,89.90
2017-09-09T07:35:03.285Z,90.00
2017-09-09T07:37:30.779Z,90.00
2017-09-09T07:39:58.275Z,89.50
2017-09-09T07:42:25.754Z,89.60
2017-09-09T07:44:53.242Z,89.80
2017-09-09T07:47:20.731Z,89.20
2017-09-09T07:49:48.219Z,89.40
2017-09-09T07:52:15.703Z,89.50
2017-09-09T07:54:43.949Z,89.50
2017-09-09T07:57:11.433Z,89.50
2017-09-09T07:59:38.918Z,89.60
2017-09-09T08:02:07.190Z,89.50
2017-09-09T08:04:35.445Z,90.00
2017-09-09T08:07:03.706Z,90.00
2017-09-09T08:09:31.187Z,90.10
2017-09-09T08:11:58.683Z,88.00
2017-09-09T08:14:26.175Z,87.30
2017-09-09T08:16:53.654Z,87.90
2017-09-09T08:19:21.133Z,88.30
2017-09-09T08:21:48.618Z,88.30
2017-09-09T08:24:16.115Z,87.10
2017-09-09T08:26:43.662Z,87.00
2017-09-09T08:29:11.156Z,85.80
2017-09-09T08:31:38.644Z,85.60
2017-09-09T08:34:06.135Z,83.50
2017-09-09T08:36:33.618Z,84.40
2017-09-09T08:39:01.103Z,83.50
2017-09-09T08:41:29.355Z,81.80
2017-09-09T08:43:56.843Z,81.90
2017-09-09T08:46:25.107Z,83.40
2017-09-09T08:48:52.584Z,83.40
2017-09-09T08:51:20.840Z,83.60
2017-09-09T08:53:48.318Z,83.50
2017-09-09T08:56:16.561Z,81.90
2017-09-09T08:58:44.051Z,81.80
2017-09-09T09:01:12.303Z,83.00
2017-09-09T09:03:39.802Z,83.00
2017-09-09T09:06:08.063Z,81.90
2017-09-09T09:08:36.326Z,81.30
2017-09-09T09:11:04.580Z,81.10
2017-09-09T09:13:32.061Z,81.00
2017-09-09T09:16:00.313Z,78.50
2017-09-09T09:18:27.798Z,78.50
2017-09-09T09:20:56.036Z,77.50
2017-09-09T09:23:23.511Z,77.50
2017-09-09T09:25:50.990Z,77.00
2017-09-09T09:28:18.474Z,76.60
2017-09-09T09:30:46.727Z,76.20
2017-09-09T09:33:14.219Z,76.10
2017-09-09T09:35:42.489Z,75.80
2017-09-09T09:38:10.737Z,77.00
2017-09-09T09:40:38.232Z,77.00
2017-09-09T09:43:06.477Z,69.00
2017-09-09T09:45:33.967Z,69.00
2017-09-09T09:48:02.208Z,65.00
2017-09-09T09:50:29.703Z,65.00
2017-09-09T09:52:57.968Z,66.60
2017-09-09T09:55:26.226Z,65.50
2017-09-09T09:57:53.705Z,65.40
2017-09-09T10:00:21.956Z,65.50
2017-09-09T10:02:50.214Z,61.70
2017-09-09T10:05:17.699Z,61.60
2017-09-09T10:07:45.186Z,60.10
2017-09-09T10:10:12.674Z,59.50
2017-09-09T10:12:40.175Z,59.90
2017-09-09T10:15:07.667Z,62.30
2017-09-09T10:17:35.155Z,62.90
2017-09-09T10:20:02.651Z,61.10
2017-09-09T10:22:30.162Z,61.30
2017-09-09T10:24:58.300Z,61.50
2017-09-09T10:27:26.596Z,60.40
2017-09-09T10:29:54.082Z,60.30
2017-09-09T10:32:21.603Z,60.10
2017-09-09T10:34:49.878Z,55.50
2017-09-09T10:37:18.135Z,55.40
2017-09-09T10:39:45.617Z,55.30
2017-09-09T10:42:13.857Z,60.00
2017-09-09T10:44:41.343Z,59.90
2017-09-09T10:47:09.605Z,60.60
2017-09-09T10:49:37.096Z,60.30
2017-09-09T10:52:04.594Z,60.20
2017-09-09T10:54:32.097Z,60.50
2017-09-09T10:57:00.338Z,59.50
2017-09-09T10:59:27.820Z,59.40
2017-09-09T11:01:55.305Z,59.20
2017-09-09T11:04:23.558Z,58.50
2017-09-09T11:06:51.056Z,58.40
2017-09-09T11:09:18.546Z,58.70
2017-09-09T11:11:46.028Z,58.80
2017-09-09T11:14:13.522Z,58.40
2017-09-09T11:16:42.682Z,58.60
2017-09-09T11:19:10.172Z,59.30
2017-09-09T11:21:38.410Z,57.80
2017-09-09T11:24:05.899Z,57.80
2017-09-09T11:26:34.160Z,57.20
2017-09-09T11:29:02.413Z,57.10
2017-09-09T11:31:29.915Z,57.20
2017-09-09T11:33:58.174Z,57.10
2017-09-09T11:36:25.665Z,57.00
2017-09-09T11:38:53.151Z,56.70
2017-09-09T11:41:20.640Z,56.40
2017-09-09T11:43:48.135Z,55.90
2017-09-09T11:46:16.387Z,55.10
2017-09-09T11:48:43.865Z,55.10
2017-09-09T11:51:12.115Z,53.70
2017-09-09T11:53:39.594Z,53.70
2017-09-09T11:56:07.085Z,54.30
2017-09-09T11:58:34.571Z,54.50
2017-09-09T12:01:02.054Z,54.60
2017-09-09T12:03:29.535Z,54.00
2017-09-09T12:05:57.022Z,54.00
2017-09-09T12:08:24.507Z,54.20
2017-09-09T12:10:51.994Z,55.00
2017-09-09T12:13:19.565Z,53.50
2017-09-09T12:15:47.815Z,53.50
2017-09-09T12:18:15.308Z,53.40
2017-09-09T12:20:43.560Z,52.00
2017-09-09T12:23:11.059Z,52.00
2017-09-09T12:25:38.546Z,51.70
2017-09-09T12:28:06.044Z,51.60
2017-09-09T12:30:33.531Z,52.70
2017-09-09T12:33:01.781Z,51.70
2017-09-09T12:35:29.294Z,51.60
2017-09-09T12:37:56.782Z,51.10
2017-09-09T12:40:24.265Z,50.90
2017-09-09T12:42:52.510Z,51.00
2017-09-09T12:45:20.000Z,50.20
2017-09-09T12:47:47.486Z,49.80
2017-09-09T12:50:14.970Z,48.00
2017-09-09T12:52:42.470Z,49.60
2017-09-09T12:55:09.960Z,48.80
2017-09-09T12:57:38.207Z,47.20
2017-09-09T13:00:05.695Z,47.20
2017-09-09T13:02:33.177Z,47.30
2017-09-09T13:05:00.667Z,47.50
2017-09-09T13:07:28.153Z,47.50
2017-09-09T13:09:56.407Z,46.10
2017-09-09T13:12:23.894Z,46.10
2017-09-09T13:14:52.132Z,47.30
2017-09-09T13:17:19.620Z,47.40
2017-09-09T13:19:47.112Z,47.00
2017-09-09T13:22:14.593Z,44.50
2017-09-09T13:24:42.089Z,43.80
2017-09-09T13:27:09.569Z,44.00
2017-09-09T13:29:37.045Z,44.20
2017-09-09T13:32:04.532Z,43.80
2017-09-09T13:34:32.016Z,44.50
2017-09-09T13:36:59.513Z,44.50
2017-09-09T13:39:26.998Z,44.80
2017-09-09T13:41:54.473Z,44.10
2017-09-09T13:44:21.963Z,43.80
2017-09-09T13:46:49.464Z,43.70
2017-09-09T13:49:17.137Z,42.50
2017-09-09T13:51:44.663Z,40.80
2017-09-09T13:54:12.922Z,42.00
2017-09-09T13:56:41.176Z,42.70
2017-09-09T13:59:08.654Z,42.10
2017-09-09T14:01:36.155Z,41.70
2017-09-09T14:04:03.639Z,41.50
2017-09-09T14:06:31.142Z,40.90
2017-09-09T14:08:58.640Z,41.00
2017-09-09T14:11:26.122Z,41.50
2017-09-09T14:13:53.665Z,41.50
2017-09-09T14:16:21.150Z,40.70
2017-09-09T14:18:48.651Z,41.30
2017-09-09T14:21:16.903Z,42.10
2017-09-09T14:23:44.390Z,41.90
2017-09-09T14:26:12.646Z,41.60
2017-09-09T14:28:40.904Z,41.80
2017-09-09T14:31:08.407Z,41.70
2017-09-09T14:33:36.659Z,42.20
2017-09-09T14:36:04.905Z,42.10
2017-09-09T14:38:32.396Z,42.10
2017-09-09T14:40:59.888Z,42.40
2017-09-09T14:43:27.382Z,42.40
2017-09-09T14:45:54.871Z,42.20
2017-09-09T14:48:23.123Z,42.80
2017-09-09T14:50:50.618Z,42.80
2017-09-09T14:53:18.884Z,44.10
2017-09-09T14:55:47.141Z,43.40
2017-09-09T14:58:14.623Z,43.30
2017-09-09T15:00:42.878Z,43.80
2017-09-09T15:03:10.367Z,43.80
2017-09-09T15:05:38.633Z,42.70
2017-09-09T15:08:06.126Z,42.60
2017-09-09T15:10:33.620Z,42.90
2017-09-09T15:13:01.123Z,42.30
2017-09-09T15:15:29.376Z,42.10
2017-09-09T15:17:56.870Z,42.00
2017-09-09T15:20:25.128Z,40.40
2017-09-09T15:22:53.378Z,42.50
2017-09-09T15:25:20.872Z,41.80
2017-09-09T15:27:49.125Z,39.30
2017-09-09T15:30:16.622Z,39.30
2017-09-09T15:32:44.116Z,39.60
2017-09-09T15:35:11.607Z,39.80
2017-09-09T15:37:39.105Z,40.70
2017-09-09T15:40:06.599Z,40.60
2017-09-09T15:42:34.078Z,40.90
2017-09-09T15:45:01.687Z,41.20
2017-09-09T15:47:29.466Z,41.30
2017-09-09T15:49:57.133Z,41.60
2017-09-09T15:52:25.542Z,42.60
2017-09-09T15:54:53.790Z,43.40
2017-09-09T15:57:21.936Z,43.90
2017-09-09T15:59:51.385Z,45.40
2017-09-09T16:02:19.953Z,45.40
2017-09-09T16:04:48.641Z,46.10
2017-09-09T16:07:17.157Z,45.70
2017-09-09T16:09:45.103Z,45.80
2017-09-09T16:12:12.827Z,46.20
2017-09-09T16:14:42.736Z,45.30
2017-09-09T16:17:12.902Z,45.30
2017-09-09T16:19:41.979Z,45.30
2017-09-09T16:22:11.425Z,48.60
2017-09-09T16:24:39.475Z,47.50
2017-09-09T16:27:10.042Z,47.40
2017-09-09T16:29:42.214Z,47.40
2017-09-09T16:32:10.950Z,50.60
2017-09-09T16:34:39.243Z,49.90
2017-09-09T16:37:08.229Z,51.50
2017-09-09T16:39:36.544Z,51.50
2017-09-09T16:42:06.008Z,53.00
2017-09-09T16:44:33.951Z,54.00
2017-09-09T16:47:03.587Z,54.30
2017-09-09T16:49:32.112Z,53.10
2017-09-09T16:51:59.862Z,54.20
2017-09-09T16:54:27.924Z,54.00
2017-09-09T16:56:56.302Z,54.70
2017-09-09T16:59:24.581Z,54.30
2017-09-09T17:01:52.068Z,54.80
2017-09-09T17:04:19.558Z,54.50
2017-09-09T17:06:48.218Z,57.60
2017-09-09T17:09:16.180Z,57.50
2017-09-09T17:11:44.301Z,55.90
2017-09-09T17:14:12.254Z,57.20
2017-09-09T17:16:40.800Z,58.50
2017-09-09T17:19:08.845Z,58.40
2017-09-09T17:21:36.591Z,57.20
2017-09-09T17:24:04.336Z,57.00
2017-09-09T17:26:32.752Z,56.70
2017-09-09T17:29:00.478Z,56.60
2017-09-09T17:31:29.308Z,56.90
2017-09-09T17:33:57.373Z,56.70
2017-09-09T17:36:25.396Z,57.20
2017-09-09T17:38:52.891Z,57.60
2017-09-09T17:41:20.386Z,58.10
2017-09-09T17:43:47.887Z,58.20
2017-09-09T17:46:16.133Z,59.60
2017-09-09T17:48:43.625Z,59.10
2017-09-09T17:51:11.882Z,60.00
2017-09-09T17:53:39.370Z,59.90
2017-09-09T17:56:06.868Z,60.00
2017-09-09T17:58:34.350Z,60.50
2017-09-09T18:01:01.838Z,61.00
2017-09-09T18:03:30.095Z,61.80
2017-09-09T18:05:57.595Z,61.70
2017-09-09T18:08:25.096Z,62.40
2017-09-09T18:10:52.592Z,62.50
2017-09-09T18:13:20.848Z,63.00
2017-09-09T18:15:49.103Z,63.50
2017-09-09T18:18:16.599Z,63.30
2017-09-09T18:20:44.886Z,63.90
2017-09-09T18:23:12.355Z,63.80
2017-09-09T18:25:40.602Z,64.00
2017-09-09T18:28:08.121Z,64.00
2017-09-09T18:30:35.619Z,64.50
2017-09-09T18:33:03.106Z,64.90
2017-09-09T18:35:31.345Z,65.00
2017-09-09T18:37:58.831Z,65.00
2017-09-09T18:40:26.330Z,65.00
2017-09-09T18:42:53.811Z,65.10
2017-09-09T18:45:21.298Z,65.60
2017-09-09T18:47:49.549Z,66.00
2017-09-09T18:50:17.034Z,65.80
2017-09-09T18:52:45.278Z,66.20
2017-09-09T18:55:12.761Z,66.10
2017-09-09T18:57:40.251Z,66.30
2017-09-09T19:00:08.508Z,66.70
2017-09-09T19:02:36.779Z,66.80
2017-09-09T19:05:05.049Z,66.80
2017-09-09T19:07:32.549Z,66.80
2017-09-09T19:10:00.036Z,66.60
2017-09-09T19:12:27.525Z,66.70
2017-09-09T19:14:55.018Z,66.70
2017-09-09T19:17:23.278Z,66.50
2017-09-09T19:19:50.787Z,66.50
2017-09-09T19:22:18.267Z,66.30
2017-09-09T19:24:45.749Z,66.30
2017-09-09T19:27:13.230Z,68.20
2017-09-09T19:29:41.476Z,74.60
2017-09-09T19:32:08.975Z,74.60
2017-09-09T19:34:36.462Z,79.20
2017-09-09T19:37:03.952Z,81.10
2017-09-09T19:39:32.198Z,84.80
2017-09-09T19:41:59.692Z,84.10
2017-09-09T19:44:27.185Z,84.80
2017-09-09T19:46:54.674Z,85.30
2017-09-09T19:49:22.157Z,86.90
2017-09-09T19:51:49.643Z,89.70
2017-09-09T19:54:17.902Z,90.20
2017-09-09T19:56:45.394Z,90.10
2017-09-09T19:59:12.879Z,86.60
2017-09-09T20:01:40.367Z,87.80
2017-09-09T20:04:07.860Z,90.50
2017-09-09T20:06:36.115Z,92.60
2017-09-09T20:09:04.376Z,93.30
2017-09-09T20:11:31.859Z,93.30
2017-09-09T20:13:59.350Z,92.00
2017-09-09T20:16:26.833Z,88.40
2017-09-09T20:18:54.332Z,87.40
2017-09-09T20:21:22.583Z,87.10
2017-09-09T20:23:50.071Z,87.10
2017-09-09T20:26:17.563Z,88.60
2017-09-09T20:28:45.048Z,87.80
2017-09-09T20:31:12.543Z,89.90
2017-09-09T20:33:40.809Z,90.60
2017-09-09T20:36:08.286Z,90.60
2017-09-09T20:38:35.774Z,91.70
2017-09-09T20:41:03.262Z,92.10
2017-09-09T20:43:30.750Z,92.10
2017-09-09T20:45:58.742Z,92.80
2017-09-09T20:48:27.484Z,87.50
2017-09-09T20:50:56.100Z,87.30
2017-09-09T20:53:24.643Z,84.00
2017-09-09T20:55:53.074Z,85.10
2017-09-09T20:58:21.398Z,84.90
2017-09-09T21:00:49.789Z,84.80
2017-09-09T21:03:18.081Z,83.70
2017-09-09T21:05:45.926Z,86.00
2017-09-09T21:08:15.125Z,90.90
2017-09-09T21:10:44.221Z,90.60
2017-09-09T21:13:12.878Z,85.80
2017-09-09T21:15:42.363Z,87.10
2017-09-09T21:18:10.494Z,86.90
2017-09-09T21:20:38.733Z,91.00
2017-09-09T21:23:08.014Z,90.80
2017-09-09T21:25:35.996Z,90.80
2017-09-09T21:28:04.958Z,92.70
2017-09-09T21:30:32.797Z,92.70
2017-09-09T21:33:01.514Z,92.80
2017-09-09T21:35:29.655Z,94.10
2017-09-09T21:37:58.374Z,93.70
2017-09-09T21:40:26.561Z,92.40
2017-09-09T21:42:54.079Z,90.60
2017-09-09T21:45:23.213Z,88.40
2017-09-09T21:47:50.712Z,87.00
2017-09-09T21:50:18.958Z,88.10
2017-09-09T21:52:46.451Z,88.10
2017-09-09T21:55:14.711Z,87.60
2017-09-09T21:57:42.959Z,87.70
2017-09-09T22:00:10.454Z,87.50
2017-09-09T22:02:38.701Z,90.00
2017-09-09T22:05:06.186Z,89.30
2017-09-09T22:07:34.443Z,93.20
2017-09-09T22:10:01.944Z,93.20
2017-09-09T22:12:29.429Z,94.10
2017-09-09T22:14:56.920Z,93.10
2017-09-09T22:17:24.432Z,94.20
2017-09-09T22:19:51.914Z,92.90
2017-09-09T22:22:19.415Z,93.10
2017-09-09T22:24:47.683Z,93.30
2017-09-09T22:27:15.173Z,93.30
2017-09-09T22:29:42.677Z,92.40
2017-09-09T22:32:10.171Z,91.90
2017-09-09T22:34:38.440Z,91.00
2017-09-09T22:37:06.704Z,92.60
2017-09-09T22:39:34.194Z,92.60
2017-09-09T22:42:02.528Z,94.70
2017-09-09T22:44:30.376Z,94.70
2017-09-09T22:47:00.116Z,95.40
2017-09-09T22:49:27.612Z,95.80
2017-09-09T22:51:55.128Z,95.40
2017-09-09T22:54:22.597Z,95.70
2017-09-09T22:56:50.097Z,95.70
2017-09-09T22:59:17.592Z,94.80
2017-09-09T23:01:45.076Z,95.30
2017-09-09T23:04:12.562Z,95.60
2017-09-09T23:06:40.827Z,94.70
2017-09-09T23:09:09.084Z,96.30
2017-09-09T23:11:36.600Z,96.20
2017-09-09T23:14:04.096Z,96.10
2017-09-09T23:16:31.611Z,96.50
2017-09-09T23:18:59.099Z,96.20
2017-09-09T23:21:26.644Z,96.30
2017-09-09T23:23:54.266Z,96.40
2017-09-09T23:26:21.838Z,96.40
2017-09-09T23:28:49.451Z,97.30
2017-09-09T23:31:17.079Z,97.20
2017-09-09T23:33:44.704Z,92.70
2017-09-09T23:36:13.095Z,95.50
2017-09-09T23:38:41.358Z,96.40
2017-09-09T23:41:09.765Z,96.40
2017-09-09T23:43:39.276Z,96.50
2017-09-09T23:46:10.252Z,97.20
2017-09-09T23:48:39.948Z,97.00
2017-09-09T23:51:10.919Z,93.50
2017-09-09T23:53:40.615Z,93.40
2017-09-09T23:56:10.199Z,94.00
2017-09-09T23:58:40.700Z,95.30
